Astrodome, Texas
Current Conditions -  °F | °C
As of 11:15 AM on Wednesday 26 Nov 2014 (Local Time) from KMCJ Reporting Station
Clear Clear  
Wind Chill: 66°   Ceiling: Unl
Heat Index: 66°   Visibility: 10mi
Dew Point: 34°   Wind: 10mph
Humidity: 30%   Direction: 210°SSW
Pressure: 30.19"   Gusts: 17mph
Location:  29.6867°N, 95.4345°W
Report Text: KMCJ 261715Z AUTO 21009G15KT 020V040 10SM CLR 19/01 A3019 RMK AO1
Loading
Personal Weather Stations






























Interactive Weather Map New forecast layout! Learn more

10-Day Weather Forecast

Advertisements
Track Severe Weather on mobile